aviador You're here:

K2C8 Decoded Metar

in
Report Time2017-09-23 19:55:00
UTC Time2017-09-23 20:02:54
Flight Rules vfr VFR
Wind350° at 10 kt
W.Rank350° ranks 2
Current wind is below 350° avg. (10.4)
Visibility9999 m
Phenomena:N/A
Clouds:Scattered 026 Hf
Scattered 075 Hf
Expected CloudBase > 2,400 ft AGL from Temp-Dew spread
CeilingNone
Temp15°C
Dew Point09°C (68% RH)
AAT11.2°C
QNH1018 hPa
Raw Report
METAR K2C8 231955Z AUTO 35010KT 10SM SCT026 SCT075 15/09 A3006 RMK
AO2=

Extra information for K2C8:More info

Social comments